createdAt,value
2023-05-10T00:02:15.730Z,0.30
2023-05-10T00:04:42.966Z,0.40
2023-05-10T00:07:12.658Z,0.20
2023-05-10T00:09:39.923Z,0.40
2023-05-10T00:12:07.278Z,0.30
2023-05-10T00:14:34.547Z,0.40
2023-05-10T00:17:01.807Z,0.40
2023-05-10T00:19:29.053Z,0.30
2023-05-10T00:21:56.418Z,0.40
2023-05-10T00:24:23.610Z,0.30
2023-05-10T00:26:50.800Z,0.25
2023-05-10T00:29:18.068Z,0.30
2023-05-10T00:31:45.264Z,0.25
2023-05-10T00:34:12.616Z,0.20
2023-05-10T00:36:39.885Z,0.30
2023-05-10T00:39:07.421Z,0.30
2023-05-10T00:41:34.625Z,0.20
2023-05-10T00:44:03.117Z,0.20
2023-05-10T00:46:30.596Z,0.32
2023-05-10T00:48:58.082Z,0.30
2023-05-10T00:51:25.430Z,0.20
2023-05-10T00:53:52.945Z,0.20
2023-05-10T00:56:23.827Z,0.20
2023-05-10T00:58:51.340Z,0.20
2023-05-10T01:01:18.589Z,0.20
2023-05-10T01:03:46.245Z,0.25
2023-05-10T01:06:13.502Z,0.20
2023-05-10T01:08:41.888Z,0.28
2023-05-10T01:11:09.130Z,0.20
2023-05-10T01:13:38.408Z,0.20
2023-05-10T01:16:07.447Z,0.52
2023-05-10T01:18:36.091Z,0.22
2023-05-10T01:21:22.044Z,0.20
2023-05-10T01:23:58.719Z,0.20
2023-05-10T01:26:35.365Z,0.30
2023-05-10T01:29:15.006Z,0.30
2023-05-10T01:32:00.882Z,0.20
2023-05-10T01:34:32.566Z,0.30
2023-05-10T01:37:04.489Z,0.30
2023-05-10T01:39:38.024Z,0.20
2023-05-10T01:42:11.535Z,0.20
2023-05-10T01:45:00.452Z,0.20
2023-05-10T01:47:38.303Z,0.25
2023-05-10T01:50:08.520Z,0.30
2023-05-10T01:52:38.979Z,0.20
2023-05-10T01:55:17.534Z,0.20
2023-05-10T01:57:47.088Z,0.30
2023-05-10T02:00:15.480Z,0.30
2023-05-10T02:02:45.661Z,0.30
2023-05-10T02:05:14.552Z,0.20
2023-05-10T02:07:42.688Z,0.30
2023-05-10T02:10:11.061Z,0.28
2023-05-10T02:12:43.260Z,0.22
2023-05-10T02:15:12.215Z,0.30
2023-05-10T02:17:40.653Z,0.32
2023-05-10T02:20:08.816Z,0.30
2023-05-10T02:22:37.326Z,0.30
2023-05-10T02:25:05.213Z,0.30
2023-05-10T02:27:32.693Z,0.32
2023-05-10T02:30:00.418Z,0.50
2023-05-10T02:32:28.276Z,0.40
2023-05-10T02:34:56.457Z,0.30
2023-05-10T02:37:24.117Z,0.80
2023-05-10T02:39:52.569Z,0.43
2023-05-10T02:42:20.796Z,0.50
2023-05-10T02:44:49.777Z,0.50
2023-05-10T02:47:17.059Z,0.50
2023-05-10T02:49:44.418Z,0.60
2023-05-10T02:52:12.075Z,0.38
2023-05-10T02:54:42.959Z,0.60
2023-05-10T02:57:10.846Z,0.70
2023-05-10T02:59:38.140Z,0.70
2023-05-10T03:02:05.560Z,0.68
2023-05-10T03:04:32.812Z,0.60
2023-05-10T03:07:00.272Z,0.70
2023-05-10T03:09:27.600Z,0.60
2023-05-10T03:11:54.821Z,0.60
2023-05-10T03:14:40.702Z,0.60
2023-05-10T03:17:24.433Z,0.70
2023-05-10T03:19:51.948Z,0.60
2023-05-10T03:22:23.379Z,0.47
2023-05-10T03:24:50.873Z,0.77
2023-05-10T03:27:18.524Z,0.80
2023-05-10T03:29:47.523Z,0.70
2023-05-10T03:32:14.841Z,0.80
2023-05-10T03:34:44.875Z,0.70
2023-05-10T03:37:12.084Z,0.80
2023-05-10T03:39:39.319Z,0.60
2023-05-10T03:42:06.591Z,0.70
2023-05-10T03:44:34.351Z,0.82
2023-05-10T03:47:01.800Z,0.93
2023-05-10T03:49:29.128Z,0.80
2023-05-10T03:51:56.347Z,0.75
2023-05-10T03:54:23.680Z,0.80
2023-05-10T03:56:50.917Z,1.00
2023-05-10T03:59:18.156Z,0.70
2023-05-10T04:01:45.451Z,0.90
2023-05-10T04:04:12.901Z,0.70
2023-05-10T04:06:40.213Z,0.90
2023-05-10T04:09:07.623Z,0.80
2023-05-10T04:11:34.829Z,0.73
2023-05-10T04:14:02.082Z,0.90
2023-05-10T04:16:29.468Z,0.90
2023-05-10T04:18:56.735Z,0.90
2023-05-10T04:21:23.919Z,0.80
2023-05-10T04:23:51.170Z,0.90
2023-05-10T04:26:18.456Z,1.00
2023-05-10T04:28:46.093Z,1.05
2023-05-10T04:31:13.567Z,1.10
2023-05-10T04:33:41.009Z,0.90
2023-05-10T04:36:08.346Z,1.08
2023-05-10T04:38:36.102Z,1.00
2023-05-10T04:41:09.592Z,1.00
2023-05-10T04:43:37.315Z,1.05
2023-05-10T04:46:04.753Z,1.10
2023-05-10T04:48:31.990Z,0.80
2023-05-10T04:50:59.236Z,1.13
2023-05-10T04:53:26.787Z,0.95
2023-05-10T04:55:54.007Z,1.02
2023-05-10T04:58:21.258Z,1.08
2023-05-10T05:00:48.523Z,0.88
2023-05-10T05:03:15.999Z,1.00
2023-05-10T05:05:43.328Z,0.88
2023-05-10T05:08:10.572Z,0.85
2023-05-10T05:10:37.835Z,0.80
2023-05-10T05:13:05.092Z,0.93
2023-05-10T05:15:32.372Z,0.85
2023-05-10T05:17:59.654Z,0.80
2023-05-10T05:20:26.984Z,0.93
2023-05-10T05:22:54.176Z,0.80
2023-05-10T05:25:21.427Z,0.60
2023-05-10T05:27:48.683Z,0.63
2023-05-10T05:30:16.050Z,0.80
2023-05-10T05:32:43.442Z,0.60
2023-05-10T05:35:10.900Z,0.52
2023-05-10T05:37:38.464Z,0.70
2023-05-10T05:40:05.885Z,0.85
2023-05-10T05:42:33.527Z,0.70
2023-05-10T05:45:00.748Z,0.88
2023-05-10T05:47:27.971Z,0.70
2023-05-10T05:49:56.313Z,0.80
2023-05-10T05:52:23.589Z,1.30
2023-05-10T05:54:50.806Z,1.00
2023-05-10T05:57:18.048Z,1.02
2023-05-10T05:59:45.489Z,0.82
2023-05-10T06:02:12.852Z,1.17
2023-05-10T06:04:42.687Z,1.02
2023-05-10T06:07:12.155Z,1.10
2023-05-10T06:09:39.356Z,0.90
2023-05-10T06:12:06.767Z,0.90
2023-05-10T06:14:33.989Z,0.90
2023-05-10T06:17:01.544Z,1.27
2023-05-10T06:19:28.950Z,0.90
2023-05-10T06:21:57.073Z,1.10
2023-05-10T06:24:24.286Z,1.10
2023-05-10T06:26:51.584Z,1.00
2023-05-10T06:29:18.783Z,1.20
2023-05-10T06:31:46.143Z,1.13
2023-05-10T06:34:14.563Z,0.90
2023-05-10T06:36:42.162Z,0.80
2023-05-10T06:39:09.421Z,0.93
2023-05-10T06:41:36.690Z,0.88
2023-05-10T06:44:04.688Z,0.90
2023-05-10T06:46:31.981Z,0.68
2023-05-10T06:48:59.225Z,0.70
2023-05-10T06:51:27.058Z,0.52
2023-05-10T06:53:54.286Z,0.80
2023-05-10T06:56:22.478Z,0.90
2023-05-10T06:58:50.060Z,0.90
2023-05-10T07:01:18.662Z,0.60
2023-05-10T07:03:46.176Z,0.93
2023-05-10T07:06:29.244Z,0.75
2023-05-10T07:08:59.969Z,0.85
2023-05-10T07:11:27.777Z,0.77
2023-05-10T07:13:54.978Z,0.73
2023-05-10T07:16:22.715Z,0.65
2023-05-10T07:18:51.434Z,0.80
2023-05-10T07:21:18.698Z,0.60
2023-05-10T07:23:46.033Z,0.70
2023-05-10T07:26:13.344Z,0.80
2023-05-10T07:28:40.686Z,0.50
2023-05-10T07:31:08.023Z,0.50
2023-05-10T07:33:35.251Z,0.60
2023-05-10T07:36:02.471Z,0.50
2023-05-10T07:38:29.720Z,0.60
2023-05-10T07:40:56.962Z,0.60
2023-05-10T07:43:24.168Z,0.60
2023-05-10T07:45:52.785Z,0.50
2023-05-10T07:48:21.884Z,0.70
2023-05-10T07:50:49.095Z,0.73
2023-05-10T07:53:16.336Z,0.70
2023-05-10T07:55:43.566Z,0.80
2023-05-10T07:58:10.744Z,0.60
2023-05-10T08:00:40.549Z,0.65
2023-05-10T08:03:07.874Z,0.60
2023-05-10T08:05:35.844Z,0.50
2023-05-10T08:08:03.144Z,0.60
2023-05-10T08:10:30.359Z,0.52
2023-05-10T08:12:59.363Z,0.50
2023-05-10T08:15:26.900Z,0.60
2023-05-10T08:17:54.247Z,0.60
2023-05-10T08:20:21.799Z,0.43
2023-05-10T08:22:51.726Z,0.50
2023-05-10T08:25:19.433Z,0.57
2023-05-10T08:27:46.916Z,0.47
2023-05-10T08:30:14.449Z,0.60
2023-05-10T08:32:41.700Z,0.50
2023-05-10T08:35:09.063Z,0.50
2023-05-10T08:37:36.306Z,0.70
2023-05-10T08:40:04.188Z,0.57
2023-05-10T08:42:32.553Z,0.68
2023-05-10T08:45:01.174Z,0.57
2023-05-10T08:47:28.456Z,0.60
2023-05-10T08:49:57.224Z,0.70
2023-05-10T08:52:26.284Z,0.50
2023-05-10T08:54:53.562Z,0.55
2023-05-10T08:57:21.345Z,0.50
2023-05-10T08:59:49.441Z,0.60
2023-05-10T09:02:18.818Z,0.40
2023-05-10T09:04:46.511Z,0.50
2023-05-10T09:07:13.928Z,0.60
2023-05-10T09:09:41.451Z,0.57
2023-05-10T09:12:12.340Z,0.50
2023-05-10T09:14:39.968Z,0.80
2023-05-10T09:17:07.716Z,0.70
2023-05-10T09:19:35.265Z,0.70
2023-05-10T09:22:03.681Z,0.57
2023-05-10T09:24:32.383Z,0.82
2023-05-10T09:26:59.858Z,0.70
2023-05-10T09:29:27.536Z,0.70
2023-05-10T09:31:59.144Z,0.68
2023-05-10T09:34:33.991Z,0.65
2023-05-10T09:37:02.580Z,0.70
2023-05-10T09:39:36.859Z,0.57
2023-05-10T09:42:05.549Z,0.60
2023-05-10T09:44:34.034Z,0.60
2023-05-10T09:47:02.121Z,0.60
2023-05-10T09:49:29.656Z,0.60
2023-05-10T09:52:03.758Z,0.70
2023-05-10T09:54:31.276Z,0.50
2023-05-10T09:56:58.622Z,0.47
2023-05-10T09:59:29.408Z,0.50
2023-05-10T10:02:00.337Z,0.50
2023-05-10T10:04:28.027Z,0.43
2023-05-10T10:07:01.813Z,0.55
2023-05-10T10:09:29.098Z,0.38
2023-05-10T10:11:57.612Z,0.60
2023-05-10T10:14:25.466Z,0.50
2023-05-10T10:17:06.713Z,0.40
2023-05-10T10:19:36.782Z,0.35
2023-05-10T10:22:04.479Z,0.40
2023-05-10T10:24:31.779Z,0.50
2023-05-10T10:27:03.289Z,0.30
2023-05-10T10:29:33.527Z,0.60
2023-05-10T10:32:19.555Z,0.50
2023-05-10T10:34:46.874Z,0.40
2023-05-10T10:37:14.174Z,0.45
2023-05-10T10:39:41.626Z,0.47
2023-05-10T10:42:08.879Z,0.50
2023-05-10T10:44:39.225Z,0.50
2023-05-10T10:47:13.221Z,0.40
2023-05-10T10:49:40.590Z,0.50
2023-05-10T10:52:17.327Z,0.40
2023-05-10T10:54:51.714Z,0.43
2023-05-10T10:57:20.299Z,0.45
2023-05-10T10:59:47.563Z,0.30
2023-05-10T11:02:33.496Z,0.43
2023-05-10T11:05:01.806Z,0.50
2023-05-10T11:07:29.076Z,0.50
2023-05-10T11:09:56.310Z,0.50
2023-05-10T11:12:24.195Z,0.60
2023-05-10T11:14:52.438Z,0.50
2023-05-10T11:17:30.343Z,0.60
2023-05-10T11:20:16.169Z,0.60
2023-05-10T11:22:56.515Z,0.60
2023-05-10T11:25:30.055Z,0.60
2023-05-10T11:27:57.861Z,0.60
2023-05-10T11:30:25.131Z,0.50
2023-05-10T11:32:52.405Z,0.60
2023-05-10T11:35:19.721Z,0.60
2023-05-10T11:37:49.836Z,0.70
2023-05-10T11:40:17.288Z,0.68
2023-05-10T11:42:44.699Z,0.90
2023-05-10T11:45:12.199Z,0.60
2023-05-10T11:47:42.644Z,0.50
2023-05-10T11:50:10.394Z,1.05
2023-05-10T11:52:40.631Z,0.70
2023-05-10T11:55:08.062Z,0.60
2023-05-10T11:57:35.465Z,0.60
2023-05-10T12:00:04.736Z,0.60
2023-05-10T12:02:32.221Z,0.50
2023-05-10T12:04:59.692Z,0.45
2023-05-10T12:07:28.064Z,0.40
2023-05-10T12:10:12.023Z,0.40
2023-05-10T12:12:43.223Z,0.40
2023-05-10T12:15:19.165Z,0.40
2023-05-10T12:17:46.915Z,0.50
2023-05-10T12:20:18.172Z,0.50
2023-05-10T12:22:46.510Z,0.60
2023-05-10T12:25:13.846Z,0.70
2023-05-10T12:27:41.083Z,0.60
2023-05-10T12:30:08.648Z,0.55
2023-05-10T12:32:43.009Z,0.75
2023-05-10T12:35:10.394Z,0.77
2023-05-10T12:37:39.955Z,0.50
2023-05-10T12:40:09.110Z,0.50
2023-05-10T12:42:39.835Z,0.80
2023-05-10T12:45:07.854Z,0.82
2023-05-10T12:47:35.422Z,0.55
2023-05-10T12:50:03.769Z,0.60
2023-05-10T12:52:31.102Z,0.52
2023-05-10T12:54:58.316Z,0.70
2023-05-10T12:57:25.597Z,0.60
2023-05-10T12:59:52.875Z,0.50
2023-05-10T13:02:21.054Z,0.50
2023-05-10T13:04:50.783Z,0.60
2023-05-10T13:07:18.346Z,0.50
2023-05-10T13:09:45.755Z,0.60
2023-05-10T13:12:13.032Z,0.52
2023-05-10T13:14:41.586Z,0.40
2023-05-10T13:17:09.001Z,0.40
2023-05-10T13:19:36.350Z,0.30
2023-05-10T13:22:03.592Z,0.40
2023-05-10T13:24:31.018Z,0.68
2023-05-10T13:26:58.312Z,0.50
2023-05-10T13:29:25.553Z,0.40
2023-05-10T13:31:52.962Z,0.50
2023-05-10T13:34:21.647Z,0.50
2023-05-10T13:36:49.945Z,0.40
2023-05-10T13:39:17.185Z,0.70
2023-05-10T13:41:44.410Z,0.52
2023-05-10T13:44:13.462Z,0.40
2023-05-10T13:46:40.806Z,0.45
2023-05-10T13:49:08.309Z,0.50
2023-05-10T13:51:35.789Z,0.40
2023-05-10T13:54:03.957Z,0.60
2023-05-10T13:56:31.343Z,0.60
2023-05-10T13:58:59.516Z,0.60
2023-05-10T14:01:26.760Z,0.70
2023-05-10T14:03:54.166Z,0.45
2023-05-10T14:06:21.451Z,0.60
2023-05-10T14:08:48.654Z,0.60
2023-05-10T14:11:16.313Z,0.60
2023-05-10T14:13:43.538Z,1.27
2023-05-10T14:16:10.962Z,0.60
2023-05-10T14:18:38.273Z,0.60
2023-05-10T14:21:05.735Z,0.70
2023-05-10T14:23:33.047Z,0.60
2023-05-10T14:26:00.309Z,0.55
2023-05-10T14:28:27.674Z,0.60
2023-05-10T14:30:54.908Z,0.70
2023-05-10T14:33:22.300Z,0.50
2023-05-10T14:35:49.742Z,0.52
2023-05-10T14:38:17.023Z,0.50
2023-05-10T14:40:44.518Z,0.43
2023-05-10T14:43:11.792Z,0.40
2023-05-10T14:45:39.159Z,0.30
2023-05-10T14:48:06.923Z,0.47
2023-05-10T14:50:37.083Z,0.70
2023-05-10T14:53:04.828Z,0.55
2023-05-10T14:55:32.202Z,0.63
2023-05-10T14:57:59.780Z,0.35
2023-05-10T15:00:27.525Z,0.75
2023-05-10T15:02:55.451Z,0.60
2023-05-10T15:05:23.316Z,0.50
2023-05-10T15:07:51.263Z,0.45
2023-05-10T15:10:20.276Z,0.40
2023-05-10T15:12:47.524Z,0.73
2023-05-10T15:15:14.884Z,0.30
2023-05-10T15:17:42.353Z,0.50
2023-05-10T15:20:09.860Z,0.40
2023-05-10T15:22:37.054Z,0.40
2023-05-10T15:25:04.999Z,0.50
2023-05-10T15:27:32.199Z,0.40
2023-05-10T15:30:00.322Z,0.32
2023-05-10T15:32:27.583Z,0.60
2023-05-10T15:34:54.845Z,1.20
2023-05-10T15:37:24.140Z,0.40
2023-05-10T15:39:51.398Z,0.50
2023-05-10T15:42:18.599Z,0.30
2023-05-10T15:44:46.024Z,0.40
2023-05-10T15:47:13.268Z,0.40
2023-05-10T15:49:40.449Z,0.40
2023-05-10T15:52:07.701Z,0.30
2023-05-10T15:54:34.927Z,0.40
2023-05-10T15:57:02.151Z,0.30
2023-05-10T15:59:29.400Z,0.30
2023-05-10T16:01:56.915Z,0.40
2023-05-10T16:04:24.480Z,0.30
2023-05-10T16:06:51.711Z,0.40
2023-05-10T16:09:18.980Z,0.20
2023-05-10T16:11:46.277Z,0.30
2023-05-10T16:14:13.514Z,0.30
2023-05-10T16:16:41.374Z,0.35
2023-05-10T16:19:08.720Z,0.30
2023-05-10T16:21:36.051Z,0.30
2023-05-10T16:24:03.732Z,0.32
2023-05-10T16:26:31.156Z,0.40
2023-05-10T16:28:58.355Z,0.30
2023-05-10T16:31:25.800Z,0.40
2023-05-10T16:33:53.342Z,0.30
2023-05-10T16:36:20.528Z,0.30
2023-05-10T16:38:47.792Z,0.30
2023-05-10T16:41:15.601Z,0.30
2023-05-10T16:43:42.828Z,0.30
2023-05-10T16:46:13.130Z,0.20
2023-05-10T16:48:40.530Z,0.30
2023-05-10T16:51:08.097Z,0.30
2023-05-10T16:53:35.506Z,0.30
2023-05-10T16:56:02.746Z,0.40
2023-05-10T16:58:29.923Z,0.50
2023-05-10T17:00:58.763Z,0.30
2023-05-10T17:03:26.013Z,0.40
2023-05-10T17:05:53.249Z,0.30
2023-05-10T17:08:20.924Z,0.30
2023-05-10T17:10:48.149Z,0.20
2023-05-10T17:13:17.136Z,0.20
2023-05-10T17:15:47.180Z,0.20
2023-05-10T17:18:14.554Z,0.30
2023-05-10T17:20:44.828Z,0.30
2023-05-10T17:23:12.491Z,0.30
2023-05-10T17:25:39.757Z,0.20
2023-05-10T17:28:06.992Z,0.28
2023-05-10T17:30:34.295Z,0.30
2023-05-10T17:33:01.963Z,0.50
2023-05-10T17:35:30.622Z,0.30
2023-05-10T17:37:58.294Z,0.50
2023-05-10T17:40:25.561Z,0.30
2023-05-10T17:42:52.843Z,0.30
2023-05-10T17:45:20.247Z,0.20
2023-05-10T17:47:47.558Z,0.30
2023-05-10T17:50:14.843Z,0.20
2023-05-10T17:52:42.103Z,0.30
2023-05-10T17:55:09.483Z,0.30
2023-05-10T17:57:38.745Z,0.30
2023-05-10T18:00:08.563Z,0.20
2023-05-10T18:02:36.856Z,0.40
2023-05-10T18:05:04.812Z,0.40
2023-05-10T18:07:32.426Z,0.28
2023-05-10T18:10:01.107Z,0.40
2023-05-10T18:12:28.384Z,0.40
2023-05-10T18:14:55.628Z,0.30
2023-05-10T18:17:22.957Z,0.30
2023-05-10T18:19:50.186Z,0.30
2023-05-10T18:22:17.419Z,0.30
2023-05-10T18:24:44.644Z,0.40
2023-05-10T18:27:12.065Z,0.40
2023-05-10T18:29:40.096Z,0.28
2023-05-10T18:32:07.540Z,0.35
2023-05-10T18:34:34.824Z,0.30
2023-05-10T18:37:07.615Z,0.40
2023-05-10T18:39:35.226Z,0.30
2023-05-10T18:42:02.506Z,0.30
2023-05-10T18:44:29.848Z,0.30
2023-05-10T18:46:57.153Z,0.40
2023-05-10T18:49:24.485Z,0.40
2023-05-10T18:51:51.902Z,0.40
2023-05-10T18:54:20.063Z,0.50
2023-05-10T18:56:48.830Z,0.30
2023-05-10T18:59:16.634Z,0.30
2023-05-10T19:01:44.081Z,0.30
2023-05-10T19:04:11.411Z,0.40
2023-05-10T19:06:38.881Z,0.40
2023-05-10T19:09:06.300Z,0.30
2023-05-10T19:11:34.570Z,0.40
2023-05-10T19:14:02.424Z,0.30
2023-05-10T19:16:30.551Z,0.40
2023-05-10T19:18:58.088Z,0.98
2023-05-10T19:21:25.942Z,0.63
2023-05-10T19:23:53.685Z,0.40
2023-05-10T19:26:22.239Z,0.40
2023-05-10T19:28:52.431Z,0.30
2023-05-10T19:31:19.845Z,0.28
2023-05-10T19:33:47.372Z,0.50
2023-05-10T19:36:14.796Z,1.15
2023-05-10T19:38:42.011Z,0.50
2023-05-10T19:41:09.479Z,0.50
2023-05-10T19:43:38.399Z,0.30
2023-05-10T19:46:05.984Z,0.40
2023-05-10T19:48:33.257Z,0.30
2023-05-10T19:51:01.662Z,0.40
2023-05-10T19:53:29.130Z,0.50
2023-05-10T19:55:56.429Z,0.30
2023-05-10T19:58:25.172Z,0.40
2023-05-10T20:00:52.515Z,0.30
2023-05-10T20:03:19.779Z,0.40
2023-05-10T20:05:47.201Z,0.30
2023-05-10T20:08:14.469Z,0.30
2023-05-10T20:10:41.675Z,0.40
2023-05-10T20:13:08.963Z,0.30
2023-05-10T20:15:36.277Z,0.20
2023-05-10T20:18:03.913Z,0.35
2023-05-10T20:20:31.823Z,0.35
2023-05-10T20:22:59.048Z,0.30
2023-05-10T20:25:26.298Z,0.30
2023-05-10T20:27:53.568Z,0.40
2023-05-10T20:30:20.990Z,0.35
2023-05-10T20:32:48.536Z,0.40
2023-05-10T20:35:15.879Z,0.50
2023-05-10T20:37:43.200Z,0.50
2023-05-10T20:40:11.048Z,0.40
2023-05-10T20:42:38.508Z,0.40
2023-05-10T20:45:06.115Z,0.30
2023-05-10T20:47:33.571Z,0.50
2023-05-10T20:50:00.878Z,0.40
2023-05-10T20:52:28.081Z,0.30
2023-05-10T20:54:55.288Z,0.40
2023-05-10T20:57:22.546Z,0.60
2023-05-10T20:59:53.129Z,0.50
2023-05-10T21:02:20.410Z,0.40
2023-05-10T21:04:47.676Z,0.40
2023-05-10T21:07:14.896Z,0.30
2023-05-10T21:09:42.095Z,0.40
2023-05-10T21:12:09.822Z,0.30
2023-05-10T21:14:37.028Z,0.40
2023-05-10T21:17:04.338Z,0.30
2023-05-10T21:19:31.581Z,0.40
2023-05-10T21:21:59.724Z,0.40
2023-05-10T21:24:26.981Z,0.35
2023-05-10T21:26:54.209Z,0.30
2023-05-10T21:29:21.403Z,0.45
2023-05-10T21:31:49.039Z,0.40
2023-05-10T21:34:17.973Z,0.30
2023-05-10T21:36:45.282Z,0.60
2023-05-10T21:39:12.623Z,0.45
2023-05-10T21:41:39.884Z,0.40
2023-05-10T21:44:07.107Z,0.35
2023-05-10T21:46:34.345Z,0.20
2023-05-10T21:49:01.840Z,0.45
2023-05-10T21:51:31.921Z,0.20
2023-05-10T21:53:59.136Z,0.22
2023-05-10T21:56:26.412Z,0.50
2023-05-10T21:58:53.732Z,0.40
2023-05-10T22:01:20.965Z,0.30
2023-05-10T22:03:48.532Z,0.30
2023-05-10T22:06:15.748Z,0.38
2023-05-10T22:08:42.953Z,0.30
2023-05-10T22:11:10.189Z,0.40
2023-05-10T22:13:37.411Z,0.28
2023-05-10T22:16:04.693Z,0.30
2023-05-10T22:18:31.984Z,0.30
2023-05-10T22:20:59.206Z,0.30
2023-05-10T22:23:26.411Z,0.30
2023-05-10T22:25:53.640Z,0.40
2023-05-10T22:28:21.259Z,0.20
2023-05-10T22:30:48.557Z,0.40
2023-05-10T22:33:15.810Z,0.40
2023-05-10T22:35:43.011Z,0.50
2023-05-10T22:38:10.243Z,0.20
2023-05-10T22:40:37.478Z,0.50
2023-05-10T22:43:04.681Z,0.55
2023-05-10T22:45:32.253Z,0.30
2023-05-10T22:48:00.258Z,0.25
2023-05-10T22:50:27.575Z,0.32
2023-05-10T22:52:54.752Z,0.30
2023-05-10T22:55:21.975Z,0.43
2023-05-10T22:57:49.277Z,0.28
2023-05-10T23:00:17.171Z,0.30
2023-05-10T23:02:44.560Z,0.20
2023-05-10T23:05:11.941Z,0.32
2023-05-10T23:07:39.174Z,0.20
2023-05-10T23:10:06.658Z,0.20
2023-05-10T23:12:33.950Z,0.28
2023-05-10T23:15:01.221Z,0.20
2023-05-10T23:17:28.519Z,0.30
2023-05-10T23:19:55.961Z,0.50
2023-05-10T23:22:23.202Z,0.40
2023-05-10T23:24:50.492Z,0.50
2023-05-10T23:27:17.703Z,0.60
2023-05-10T23:29:44.489Z,0.50
2023-05-10T23:32:11.531Z,0.50
2023-05-10T23:34:38.285Z,0.55
2023-05-10T23:37:05.014Z,0.40
2023-05-10T23:39:31.920Z,0.38
2023-05-10T23:41:58.652Z,0.30
2023-05-10T23:44:25.386Z,0.40
2023-05-10T23:46:52.249Z,0.40
2023-05-10T23:49:19.215Z,0.30
2023-05-10T23:51:45.962Z,0.22
2023-05-10T23:54:12.915Z,0.40
2023-05-10T23:56:39.700Z,0.30
2023-05-10T23:59:06.662Z,0.40
